Time;durP1;ratioP1;P1;durP2;ratioP2;P2;SDS_P1;SDS_P2;PMS_P1;PMS_P2;Temp;Humidity;BMP_temperature;BMP_pressure;BME280_temperature;BME280_humidity;BME280_pressure;Samples;Min_cycle;Max_cycle;Signal;HPM_P1;HPM_P2
2024/01/18 00:02:02;;;;;;;29.15;15.25;;;;;;;4.72;67.33;98600.97;4955492;28;97046;-73
2024/01/18 00:04:28;;;;;;;25.88;13.65;;;;;;;4.61;67.54;98603.22;4948335;28;99316;-73
2024/01/18 00:06:56;;;;;;;29.23;13.57;;;;;;;4.50;67.78;98602.84;4949208;28;98858;-71
2024/01/18 00:09:23;;;;;;;28.23;13.63;;;;;;;4.89;66.93;98604.56;4953672;28;100919;-72
2024/01/18 00:11:49;;;;;;;28.25;13.93;;;;;;;5.05;66.25;98613.41;4950699;28;97260;-72
2024/01/18 00:14:15;;;;;;;25.20;13.98;;;;;;;5.18;65.45;98601.44;4950202;28;98866;-72
2024/01/18 00:16:41;;;;;;;28.85;13.63;;;;;;;5.30;64.89;98594.78;4948286;28;99117;-72
2024/01/18 00:19:08;;;;;;;29.52;13.82;;;;;;;5.38;64.47;98600.50;4953541;28;96784;-72
2024/01/18 00:21:34;;;;;;;27.75;14.32;;;;;;;5.38;64.01;98611.78;4952093;28;97654;-72
2024/01/18 00:24:02;;;;;;;31.25;15.73;;;;;;;5.09;64.34;98613.19;4951437;28;99311;-71
2024/01/18 00:26:28;;;;;;;30.15;15.27;;;;;;;4.93;65.22;98617.44;4948686;28;99268;-72
2024/01/18 00:28:55;;;;;;;28.33;14.18;;;;;;;5.04;64.70;98625.66;4947067;28;98071;-73
2024/01/18 00:31:21;;;;;;;34.28;14.23;;;;;;;5.01;65.02;98638.03;4947994;28;97114;-73
2024/01/18 00:33:48;;;;;;;28.60;14.98;;;;;;;4.84;65.32;98644.03;4950667;28;98853;-73
2024/01/18 00:36:14;;;;;;;29.08;14.18;;;;;;;4.54;66.33;98650.63;4943453;28;98889;-73
2024/01/18 00:38:40;;;;;;;30.52;14.98;;;;;;;4.69;66.47;98650.81;4950139;28;97728;-73
2024/01/18 00:41:08;;;;;;;31.23;14.18;;;;;;;4.54;65.82;98666.31;4948259;28;96909;-73
2024/01/18 00:43:35;;;;;;;27.15;14.30;;;;;;;4.69;65.58;98665.66;4947855;28;102106;-73
2024/01/18 00:46:04;;;;;;;28.02;14.02;;;;;;;4.11;67.85;98678.66;4948266;28;97970;-73
2024/01/18 00:48:30;;;;;;;28.65;15.18;;;;;;;4.21;67.40;98690.41;4951240;28;98348;-73
2024/01/18 00:50:57;;;;;;;26.73;13.90;;;;;;;4.44;66.84;98691.19;4949454;28;97601;-73
2024/01/18 00:53:23;;;;;;;26.92;13.82;;;;;;;4.60;65.96;98698.28;4946796;28;98856;-73
2024/01/18 00:55:49;;;;;;;25.88;13.35;;;;;;;4.56;65.57;98695.88;4949318;28;98805;-73
2024/01/18 00:58:17;;;;;;;26.55;13.15;;;;;;;4.52;64.50;98694.34;4947817;28;97168;-73
2024/01/18 01:00:44;;;;;;;28.67;13.38;;;;;;;4.12;65.22;98687.34;4943249;28;99486;-73
2024/01/18 01:03:10;;;;;;;26.83;13.43;;;;;;;4.37;65.30;98703.69;4948839;28;99494;-73
2024/01/18 01:05:36;;;;;;;26.27;13.82;;;;;;;4.34;65.00;98703.78;4955245;28;99456;-73
2024/01/18 01:08:03;;;;;;;29.88;13.98;;;;;;;4.47;64.75;98710.19;4953596;28;96814;-72
2024/01/18 01:10:29;;;;;;;24.80;12.43;;;;;;;4.40;64.78;98709.63;4950074;28;97313;-72
2024/01/18 01:12:56;;;;;;;23.67;13.13;;;;;;;4.38;64.78;98726.31;4948230;28;98983;-72
2024/01/18 01:15:23;;;;;;;26.92;12.85;;;;;;;4.35;64.26;98737.72;4956116;28;99279;-72
2024/01/18 01:17:50;;;;;;;25.50;12.98;;;;;;;4.28;64.71;98738.91;4951028;28;97089;-72
2024/01/18 01:20:16;;;;;;;25.08;13.27;;;;;;;3.94;65.54;98738.56;4948712;28;96800;-73
2024/01/18 01:22:42;;;;;;;26.83;13.10;;;;;;;3.87;65.50;98737.97;4948439;28;101867;-71
2024/01/18 01:25:09;;;;;;;25.13;12.68;;;;;;;3.96;65.72;98739.38;4953801;28;102195;-71
2024/01/18 01:27:35;;;;;;;22.20;12.40;;;;;;;4.15;64.26;98742.94;4952594;28;96820;-71
2024/01/18 01:30:02;;;;;;;24.88;13.63;;;;;;;4.65;63.75;98737.34;4951463;28;97814;-72
2024/01/18 01:32:30;;;;;;;28.48;13.77;;;;;;;4.88;62.60;98742.41;4946385;28;98154;-72
2024/01/18 01:34:56;;;;;;;30.77;15.35;;;;;;;4.99;61.19;98740.16;4949295;28;101745;-72
2024/01/18 01:37:23;;;;;;;26.38;14.07;;;;;;;4.90;61.11;98737.97;4947243;28;97300;-72
2024/01/18 01:39:49;;;;;;;25.90;13.68;;;;;;;4.47;62.29;98748.56;4949606;28;98393;-72
2024/01/18 01:42:15;;;;;;;28.40;14.13;;;;;;;4.89;62.64;98738.88;4945368;28;99299;-72
2024/01/18 01:44:42;;;;;;;24.13;13.50;;;;;;;4.59;63.19;98742.84;4947888;28;100341;-72
2024/01/18 01:47:08;;;;;;;29.73;15.02;;;;;;;5.01;61.02;98740.97;4949190;28;97301;-72
2024/01/18 01:49:36;;;;;;;29.65;14.43;;;;;;;4.81;61.34;98748.84;4949882;28;96864;-71
2024/01/18 01:52:04;;;;;;;30.27;14.55;;;;;;;4.81;61.33;98770.63;4949527;28;98652;-71
2024/01/18 01:54:32;;;;;;;31.30;14.80;;;;;;;4.58;61.97;98772.53;4948291;28;99387;-71
2024/01/18 01:57:01;;;;;;;26.48;13.95;;;;;;;4.57;62.07;98776.06;4949572;28;97691;-74
2024/01/18 01:59:28;;;;;;;27.95;13.98;;;;;;;4.26;63.04;98781.72;4943285;28;101336;-75
2024/01/18 02:01:54;;;;;;;23.67;13.90;;;;;;;4.50;63.18;98779.84;4950800;28;99058;-74
2024/01/18 02:04:21;;;;;;;26.70;13.20;;;;;;;4.58;62.32;98781.22;4948111;28;101681;-74
2024/01/18 02:06:52;;;;;;;26.10;13.35;;;;;;;4.30;62.57;98773.69;4950508;28;97539;-75
2024/01/18 02:09:19;;;;;;;29.42;14.75;;;;;;;4.75;62.57;98777.88;4951613;28;96844;-74
2024/01/18 02:11:45;;;;;;;30.27;14.55;;;;;;;5.03;61.08;98775.78;4948446;28;99324;-74
2024/01/18 02:14:13;;;;;;;27.73;15.05;;;;;;;5.17;60.30;98775.16;4947040;28;99415;-72
2024/01/18 02:16:39;;;;;;;25.38;13.98;;;;;;;5.26;59.03;98768.66;4951103;28;97223;-72
2024/01/18 02:19:06;;;;;;;28.98;14.18;;;;;;;5.21;59.06;98768.84;4954629;28;98026;-72
2024/01/18 02:21:33;;;;;;;25.42;13.98;;;;;;;4.97;59.47;98778.66;4951813;28;99859;-72
2024/01/18 02:24:10;;;;;;;29.30;13.50;;;;;;;5.01;59.49;98782.84;4953324;28;98813;-72
2024/01/18 02:26:38;;;;;;;27.10;14.07;;;;;;;4.91;59.14;98788.56;4950782;28;97117;-71
2024/01/18 02:29:04;;;;;;;28.52;14.30;;;;;;;4.39;60.36;98789.00;4955241;28;97197;-72
2024/01/18 02:31:31;;;;;;;24.50;13.50;;;;;;;4.42;61.41;98793.25;4952443;28;98912;-72
2024/01/18 02:33:58;;;;;;;26.73;13.45;;;;;;;4.19;61.61;98803.81;4951110;28;101310;-71
2024/01/18 02:36:24;;;;;;;25.00;13.82;;;;;;;4.73;60.83;98804.09;4952436;28;97397;-72
2024/01/18 02:38:51;;;;;;;28.20;13.85;;;;;;;5.06;59.28;98808.81;4949816;28;97654;-73
2024/01/18 02:41:18;;;;;;;27.58;15.10;;;;;;;5.19;58.96;98812.59;4948254;28;101066;-72
2024/01/18 02:43:47;;;;;;;28.92;15.52;;;;;;;4.97;59.42;98809.22;4953475;28;98768;-72
2024/01/18 02:46:16;;;;;;;31.58;14.48;;;;;;;5.05;59.13;98807.97;4951262;28;97074;-72
2024/01/18 02:48:43;;;;;;;29.75;14.63;;;;;;;4.85;59.97;98800.13;4951003;28;96987;-72
2024/01/18 02:51:09;;;;;;;33.80;15.45;;;;;;;5.06;58.89;98811.41;4948318;28;98923;-74
2024/01/18 02:53:35;;;;;;;32.05;15.55;;;;;;;5.17;59.05;98809.19;4951107;28;99361;-74
2024/01/18 02:56:02;;;;;;;28.33;14.65;;;;;;;4.88;58.87;98818.31;4948547;28;99042;-71
2024/01/18 02:58:28;;;;;;;28.83;15.20;;;;;;;4.22;60.48;98819.34;4955362;28;97668;-71
2024/01/18 03:00:56;;;;;;;28.90;14.10;;;;;;;4.28;61.19;98817.34;4949757;28;98855;-73
2024/01/18 03:03:23;;;;;;;29.23;14.85;;;;;;;4.64;61.05;98824.59;4949245;28;99038;-71
2024/01/18 03:05:49;;;;;;;27.08;15.18;;;;;;;4.36;61.69;98833.56;4950226;28;97836;-71
2024/01/18 03:08:17;;;;;;;29.38;15.60;;;;;;;4.76;60.93;98829.31;4955854;28;97355;-71
2024/01/18 03:10:43;;;;;;;30.08;15.20;;;;;;;5.07;58.95;98824.44;4950731;28;99242;-73
2024/01/18 03:13:10;;;;;;;34.33;16.75;;;;;;;5.22;58.42;98820.31;4955104;28;100773;-73
2024/01/18 03:15:36;;;;;;;29.95;14.80;;;;;;;5.04;58.33;98824.59;4949842;28;101581;-70
2024/01/18 03:18:07;;;;;;;34.05;15.43;;;;;;;4.95;59.27;98819.75;4953603;28;97593;-74
2024/01/18 03:20:33;;;;;;;34.83;15.90;;;;;;;5.14;58.53;98825.03;4951685;28;100855;-70
2024/01/18 03:23:01;;;;;;;34.63;16.45;;;;;;;4.93;59.45;98829.44;4951789;28;98918;-74
2024/01/18 03:25:29;;;;;;;27.65;14.88;;;;;;;4.40;60.22;98832.53;4952403;28;96806;-74
2024/01/18 03:27:56;;;;;;;28.67;15.65;;;;;;;4.76;60.55;98837.16;4950658;28;96804;-70
2024/01/18 03:30:22;;;;;;;32.53;16.98;;;;;;;4.89;nan;98840.94;4956429;28;98961;-71
2024/01/18 03:32:48;;;;;;;29.80;15.30;;;;;;;4.71;60.87;98844.34;4951668;28;99201;-72
2024/01/18 03:35:16;;;;;;;28.98;14.68;;;;;;;4.63;61.13;98841.19;4950595;28;96964;-71
2024/01/18 03:37:43;;;;;;;28.80;15.50;;;;;;;4.57;61.79;98849.31;4949205;28;97362;-73
2024/01/18 03:40:10;;;;;;;26.45;15.23;;;;;;;4.86;60.01;98856.78;4948926;28;99219;-71
2024/01/18 03:42:40;;;;;;;34.00;16.08;;;;;;;5.00;59.46;98857.03;4947995;28;100736;-71
2024/01/18 03:45:07;;;;;;;32.92;17.17;;;;;;;4.52;61.21;98869.56;4951478;28;97412;-70
2024/01/18 03:47:33;;;;;;;33.95;15.77;;;;;;;4.88;60.19;98875.03;4947812;28;98539;-70
2024/01/18 03:50:00;;;;;;;31.13;16.13;;;;;;;5.01;58.98;98870.97;4950433;28;98833;-71
2024/01/18 03:52:28;;;;;;;36.97;16.58;;;;;;;4.93;59.43;98878.31;4942830;28;97983;-71
2024/01/18 03:54:54;;;;;;;34.45;16.60;;;;;;;5.01;59.31;98886.69;4947059;28;98513;-71
2024/01/18 03:57:20;;;;;;;34.30;15.70;;;;;;;4.93;60.13;98889.63;4950644;28;97848;-71
2024/01/18 03:59:47;;;;;;;26.27;14.80;;;;;;;4.55;60.87;98885.97;4952995;28;100510;-71
2024/01/18 04:02:14;;;;;;;29.58;16.38;;;;;;;5.19;59.30;98896.38;4951338;28;99908;-71
2024/01/18 04:04:41;;;;;;;33.15;15.93;;;;;;;5.12;58.82;98894.97;4950878;28;96857;-72
2024/01/18 04:07:07;;;;;;;32.17;16.88;;;;;;;4.68;60.31;98902.03;4951381;28;97105;-73
2024/01/18 04:09:35;;;;;;;33.85;16.55;;;;;;;4.96;58.72;98894.75;4952281;28;99396;-71
2024/01/18 04:12:01;;;;;;;35.90;17.17;;;;;;;4.87;59.21;98902.97;4949983;28;98798;-71
2024/01/18 04:14:28;;;;;;;31.52;16.63;;;;;;;4.77;59.53;98906.91;4952555;28;96793;-72
2024/01/18 04:16:54;;;;;;;29.70;16.02;;;;;;;4.92;58.50;98903.66;4947176;28;97438;-71
2024/01/18 04:19:21;;;;;;;31.15;15.77;;;;;;;4.92;58.97;98897.56;4950600;28;98904;-71
2024/01/18 04:21:50;;;;;;;29.58;15.82;;;;;;;4.84;58.97;98903.13;4952563;28;98904;-73
2024/01/18 04:24:17;;;;;;;35.05;16.58;;;;;;;4.66;60.03;98901.25;4951149;28;96851;-73
2024/01/18 04:26:44;;;;;;;33.05;15.57;;;;;;;4.71;59.37;98907.16;4954892;28;96829;-71
2024/01/18 04:29:12;;;;;;;31.73;16.27;;;;;;;4.64;59.87;98908.31;4947831;28;98818;-71
2024/01/18 04:31:42;;;;;;;34.90;16.20;;;;;;;4.32;61.29;98907.84;4948751;28;98704;-72
2024/01/18 04:34:09;;;;;;;34.83;16.95;;;;;;;4.27;61.75;98914.13;4945765;28;97305;-72
2024/01/18 04:36:35;;;;;;;34.22;17.25;;;;;;;4.15;62.15;98925.06;4947373;28;97136;-71
2024/01/18 04:39:02;;;;;;;38.05;17.92;;;;;;;4.36;62.01;98919.88;4947926;28;100173;-72
2024/01/18 04:41:28;;;;;;;33.60;15.60;;;;;;;4.20;62.00;98920.53;4948972;28;99162;-71
2024/01/18 04:43:56;;;;;;;31.58;15.98;;;;;;;4.11;62.30;98919.13;4949195;28;96934;-71
2024/01/18 04:46:23;;;;;;;31.60;15.73;;;;;;;4.07;62.20;98921.91;4948401;28;96838;-71
2024/01/18 04:48:49;;;;;;;35.95;16.27;;;;;;;4.15;62.11;98932.91;4947616;28;99449;-72
2024/01/18 04:51:16;;;;;;;29.45;15.30;;;;;;;4.05;61.34;98934.19;4948112;28;98847;-73
2024/01/18 04:53:42;;;;;;;30.88;16.20;;;;;;;3.81;62.77;98931.56;4944330;28;97556;-72
2024/01/18 04:56:08;;;;;;;37.97;17.10;;;;;;;4.11;62.41;98924.34;4947797;28;97006;-71
2024/01/18 04:58:36;;;;;;;30.88;16.38;;;;;;;4.31;61.70;98931.41;4951200;28;99122;-71
2024/01/18 05:01:04;;;;;;;35.90;16.60;;;;;;;4.11;61.64;98932.19;4952455;28;98814;-70
2024/01/18 05:03:31;;;;;;;39.55;16.55;;;;;;;3.63;63.02;98927.00;4953377;28;97673;-70
2024/01/18 05:05:58;;;;;;;30.75;15.40;;;;;;;3.59;63.97;98925.44;4952138;28;97054;-71
2024/01/18 05:08:24;;;;;;;40.03;17.65;;;;;;;3.97;63.21;98919.63;4949394;28;98874;-70
2024/01/18 05:10:51;;;;;;;30.98;15.18;;;;;;;3.75;63.07;98918.72;4949968;28;99118;-70
2024/01/18 05:13:18;;;;;;;32.75;16.67;;;;;;;3.98;63.60;98929.19;4954653;28;96766;-70
2024/01/18 05:15:44;;;;;;;32.28;16.20;;;;;;;4.04;62.34;98928.09;4951645;28;97274;-71
2024/01/18 05:18:12;;;;;;;30.90;16.73;;;;;;;3.74;63.18;98937.91;4946538;28;99280;-70
2024/01/18 05:20:38;;;;;;;32.22;16.80;;;;;;;4.17;62.62;98939.78;4948579;28;98920;-70
2024/01/18 05:23:06;;;;;;;36.55;16.77;;;;;;;4.25;61.76;98947.34;4951738;28;96838;-70
2024/01/18 05:25:32;;;;;;;40.22;17.73;;;;;;;4.53;61.56;98941.91;4949552;28;97477;-70
2024/01/18 05:27:59;;;;;;;35.33;16.48;;;;;;;4.54;61.58;98948.81;4950610;28;99056;-70
2024/01/18 05:30:25;;;;;;;33.88;16.27;;;;;;;4.50;60.57;98945.47;4948873;28;98568;-71
2024/01/18 05:32:52;;;;;;;29.42;16.50;;;;;;;4.49;61.04;98937.69;4947475;28;97517;-71
2024/01/18 05:35:19;;;;;;;37.15;18.35;;;;;;;4.66;60.48;98946.56;4944206;28;96944;-71
2024/01/18 05:37:46;;;;;;;33.75;16.88;;;;;;;4.78;60.38;98959.16;4947079;28;99436;-71
2024/01/18 05:40:12;;;;;;;34.13;17.52;;;;;;;4.52;59.91;98979.44;4949744;28;98888;-71
2024/01/18 05:42:39;;;;;;;33.55;16.88;;;;;;;4.11;61.96;98989.69;4947988;28;97300;-71
2024/01/18 05:45:07;;;;;;;30.02;16.05;;;;;;;4.04;61.75;98984.75;4944863;28;96833;-71
2024/01/18 05:47:33;;;;;;;34.17;16.42;;;;;;;3.92;61.32;98981.69;4944499;28;98898;-70
2024/01/18 05:50:00;;;;;;;32.88;18.67;;;;;;;3.92;61.84;98997.34;4948840;28;98830;-71
2024/01/18 05:52:29;;;;;;;29.33;16.20;;;;;;;3.99;61.92;98988.38;4944967;28;99655;-72
2024/01/18 05:54:56;;;;;;;32.80;16.17;;;;;;;3.79;62.22;99017.00;4948949;28;96874;-70
2024/01/18 05:57:23;;;;;;;33.17;16.77;;;;;;;3.66;62.80;99018.34;4954015;28;98742;-72
2024/01/18 05:59:50;;;;;;;29.73;16.55;;;;;;;3.51;64.50;99024.06;4949206;28;97882;-72
2024/01/18 06:02:16;;;;;;;34.08;18.20;;;;;;;3.40;64.24;99019.22;4955311;28;98496;-71
2024/01/18 06:04:42;;;;;;;39.58;17.77;;;;;;;3.63;63.78;99007.13;4948968;28;97816;-72
2024/01/18 06:07:09;;;;;;;33.63;16.60;;;;;;;4.08;62.79;99012.47;4950331;28;99132;-71
2024/01/18 06:09:37;;;;;;;33.17;17.10;;;;;;;3.86;63.20;99022.84;4953625;28;98885;-72
2024/01/18 06:12:04;;;;;;;41.97;18.40;;;;;;;4.00;63.49;99038.91;4952738;28;97229;-71
2024/01/18 06:14:30;;;;;;;31.88;16.60;;;;;;;4.02;62.18;99039.69;4949993;28;96766;-73
2024/01/18 06:16:56;;;;;;;32.45;16.15;;;;;;;3.96;62.59;99040.75;4946391;28;98616;-73
2024/01/18 06:19:23;;;;;;;41.25;17.27;;;;;;;4.06;62.83;99048.28;4946050;28;101802;-73
2024/01/18 06:21:50;;;;;;;37.95;17.10;;;;;;;3.67;62.92;99042.69;4948161;28;97049;-72
2024/01/18 06:24:16;;;;;;;33.13;17.63;;;;;;;3.39;65.29;99048.84;4945765;28;97535;-73
2024/01/18 06:26:44;;;;;;;34.40;17.10;;;;;;;3.79;64.18;99058.78;4947618;28;99029;-73
2024/01/18 06:29:11;;;;;;;40.88;17.88;;;;;;;3.75;63.57;99062.41;4947010;28;99486;-72
2024/01/18 06:31:38;;;;;;;32.60;16.83;;;;;;;3.64;64.53;99063.69;4948671;28;97265;-73
2024/01/18 06:34:05;;;;;;;32.78;17.00;;;;;;;3.67;64.15;99068.81;4950245;28;98697;-72
2024/01/18 06:36:32;;;;;;;34.28;16.35;;;;;;;3.93;63.19;99072.25;4947442;28;101382;-72
2024/01/18 06:38:58;;;;;;;36.90;16.85;;;;;;;3.96;63.15;99079.97;4944442;28;100147;-71
2024/01/18 06:41:25;;;;;;;32.63;17.80;;;;;;;4.03;62.90;99087.56;4950010;28;97355;-72
2024/01/18 06:43:53;;;;;;;36.88;19.27;;;;;;;3.76;63.41;99087.63;4950046;28;98358;-71
2024/01/18 06:46:19;;;;;;;39.25;18.35;;;;;;;4.04;63.00;99076.22;4952385;28;99375;-70
2024/01/18 06:48:52;;;;;;;34.10;17.33;;;;;;;4.12;62.76;99071.59;4952459;28;101134;-71
2024/01/18 06:51:19;;;;;;;35.35;17.02;;;;;;;3.75;63.33;99082.44;4949476;28;97785;-70
2024/01/18 06:53:46;;;;;;;40.35;17.10;;;;;;;3.57;63.99;99091.78;4948465;28;96900;-70
2024/01/18 06:56:13;;;;;;;37.17;17.48;;;;;;;3.52;65.18;99089.31;4944259;28;99239;-71
2024/01/18 06:58:40;;;;;;;35.45;17.73;;;;;;;3.49;64.63;99093.78;4953257;28;99084;-70
2024/01/18 07:01:09;;;;;;;39.42;17.63;;;;;;;3.43;65.30;99087.00;4947904;28;98549;-70
2024/01/18 07:03:36;;;;;;;36.00;17.70;;;;;;;3.46;65.12;99084.31;4949440;28;98735;-70
2024/01/18 07:06:03;;;;;;;39.50;18.92;;;;;;;3.16;66.12;99086.13;4951214;28;99202;-70
2024/01/18 07:08:30;;;;;;;33.42;17.15;;;;;;;3.28;66.23;99090.13;4954607;28;99848;-69
2024/01/18 07:10:56;;;;;;;34.20;17.25;;;;;;;3.31;65.94;99095.22;4951173;28;97791;-69
2024/01/18 07:13:23;;;;;;;40.00;17.30;;;;;;;3.40;65.82;99100.16;4953183;28;96797;-68
2024/01/18 07:15:50;;;;;;;36.22;18.02;;;;;;;3.51;65.83;99099.81;4945644;28;98793;-69
2024/01/18 07:18:18;;;;;;;42.55;19.08;;;;;;;3.22;66.12;99098.13;4945417;28;99111;-70
2024/01/18 07:20:44;;;;;;;44.67;21.55;;;;;;;3.38;65.98;99099.34;4945741;28;97184;-70
2024/01/18 07:23:10;;;;;;;38.30;19.05;;;;;;;3.37;66.26;99096.78;4953210;28;96821;-70
2024/01/18 07:25:37;;;;;;;47.17;19.25;;;;;;;3.33;66.15;99095.19;4949858;28;99017;-72
2024/01/18 07:28:03;;;;;;;38.22;19.75;;;;;;;3.35;66.83;99101.22;4950228;28;98793;-70
2024/01/18 07:30:30;;;;;;;40.00;19.05;;;;;;;3.13;66.73;99095.81;4948658;28;99090;-70
2024/01/18 07:32:57;;;;;;;32.97;17.90;;;;;;;2.94;67.99;99098.16;4954195;28;96861;-71
2024/01/18 07:35:24;;;;;;;39.08;18.65;;;;;;;2.83;68.98;99097.59;4953561;28;99051;-71
2024/01/18 07:37:51;;;;;;;38.75;17.90;;;;;;;2.84;68.52;99099.31;4945836;28;102845;-71
2024/01/18 07:40:17;;;;;;;38.25;19.15;;;;;;;2.71;69.25;99104.06;4947531;28;98234;-70
2024/01/18 07:42:44;;;;;;;42.85;18.67;;;;;;;2.78;69.21;99109.94;4942817;28;98714;-70
2024/01/18 07:45:14;;;;;;;40.60;18.73;;;;;;;2.91;69.15;99118.25;4949451;28;98839;-70
2024/01/18 07:47:40;;;;;;;36.42;19.15;;;;;;;3.13;68.43;99109.72;4937514;28;99143;-71
2024/01/18 07:50:08;;;;;;;37.72;18.83;;;;;;;2.98;68.70;99111.94;4943811;28;97229;-71
2024/01/18 07:52:36;;;;;;;40.85;19.13;;;;;;;3.23;67.90;99112.88;4944474;28;96977;-70
2024/01/18 07:55:05;;;;;;;41.33;20.73;;;;;;;3.29;67.15;99107.47;4946946;28;97953;-71
2024/01/18 07:57:31;;;;;;;41.85;20.48;;;;;;;3.43;67.31;99102.66;4946900;28;98828;-70
2024/01/18 07:59:58;;;;;;;42.72;19.23;;;;;;;3.16;67.32;99111.38;4948134;28;97591;-71
2024/01/18 08:02:23;;;;;;;39.42;20.88;;;;;;;3.47;67.61;99103.44;4944994;28;97103;-71
2024/01/18 08:04:49;;;;;;;47.80;20.05;;;;;;;3.56;66.96;99108.34;4950202;28;98903;-71
2024/01/18 08:07:16;;;;;;;35.60;19.95;;;;;;;4.14;65.45;99117.66;4953252;28;99224;-71
2024/01/18 08:09:44;;;;;;;37.50;20.08;;;;;;;4.36;63.39;99116.00;4945826;28;96780;-71
2024/01/18 08:12:10;;;;;;;46.58;20.25;;;;;;;3.80;64.56;99119.75;4948290;28;98382;-71
2024/01/18 08:14:41;;;;;;;38.10;19.65;;;;;;;3.75;65.19;99125.09;4948930;28;98231;-72
2024/01/18 08:17:07;;;;;;;41.35;19.80;;;;;;;3.56;66.36;99137.91;4943350;28;99430;-71
2024/01/18 08:19:34;;;;;;;35.47;20.52;;;;;;;4.20;64.65;99135.72;4952234;28;97264;-71
2024/01/18 08:22:00;;;;;;;38.58;20.67;;;;;;;4.63;62.53;99142.06;4944101;28;99413;-71
2024/01/18 08:24:27;;;;;;;40.20;19.38;;;;;;;4.36;62.82;99138.66;4947911;28;99235;-70
2024/01/18 08:26:54;;;;;;;38.83;20.08;;;;;;;4.67;62.78;99141.88;4948268;28;99161;-71
2024/01/18 08:29:21;;;;;;;39.67;19.60;;;;;;;4.58;61.44;99138.75;4949008;28;97168;-70
2024/01/18 08:31:47;;;;;;;32.63;18.50;;;;;;;4.22;61.66;99138.31;4949426;28;96770;-70
2024/01/18 08:34:14;;;;;;;34.88;19.25;;;;;;;4.52;62.22;99146.84;4949451;28;101157;-70
2024/01/18 08:36:41;;;;;;;41.83;21.38;;;;;;;4.61;61.93;99149.09;4948558;28;101311;-71
2024/01/18 08:39:08;;;;;;;39.55;19.23;;;;;;;5.17;59.53;99150.44;4947807;28;96780;-70
2024/01/18 08:41:34;;;;;;;45.45;20.83;;;;;;;5.46;59.50;99151.91;4950258;28;96991;-71
2024/01/18 08:44:02;;;;;;;36.78;19.00;;;;;;;5.58;57.79;99154.03;4950312;28;97627;-70
2024/01/18 08:46:29;;;;;;;42.83;20.63;;;;;;;5.48;57.94;99157.09;4946310;28;97695;-70
2024/01/18 08:48:56;;;;;;;37.25;19.83;;;;;;;5.29;58.09;99163.97;4949937;28;97070;-70
2024/01/18 08:51:23;;;;;;;37.03;19.60;;;;;;;5.40;59.35;99167.00;4949028;28;97285;-70
2024/01/18 08:53:50;;;;;;;41.60;20.80;;;;;;;5.43;58.50;99161.66;4945301;28;100120;-71
2024/01/18 08:56:17;;;;;;;40.75;19.60;;;;;;;5.03;59.46;99170.22;4948120;28;99904;-71
2024/01/18 08:58:44;;;;;;;44.25;19.80;;;;;;;4.87;60.54;99166.44;4949400;28;97126;-70
2024/01/18 09:01:11;;;;;;;34.92;18.17;;;;;;;4.96;60.55;99174.81;4949676;28;97218;-72
2024/01/18 09:03:38;;;;;;;38.38;19.13;;;;;;;4.77;60.08;99161.56;4949542;28;104830;-70
2024/01/18 09:06:05;;;;;;;37.47;20.10;;;;;;;4.46;62.29;99173.22;4946633;28;98969;-70
2024/01/18 09:08:34;;;;;;;40.28;20.20;;;;;;;4.41;62.93;99176.81;4948865;28;96797;-70
2024/01/18 09:11:00;;;;;;;37.80;20.50;;;;;;;4.63;62.45;99194.38;4947553;28;96782;-70
2024/01/18 09:13:26;;;;;;;34.28;19.50;;;;;;;4.88;62.06;99187.34;4949121;28;101157;-72
2024/01/18 09:15:53;;;;;;;35.47;18.92;;;;;;;5.06;61.10;99189.25;4949529;28;99012;-71
2024/01/18 09:18:21;;;;;;;38.05;18.65;;;;;;;4.91;60.99;99196.84;4945416;28;97765;-71
2024/01/18 09:20:48;;;;;;;41.85;19.30;;;;;;;4.82;61.68;99201.50;4943598;28;97135;-70
2024/01/18 09:23:14;;;;;;;35.75;19.48;;;;;;;4.79;61.55;99211.25;4948638;28;99086;-71
2024/01/18 09:25:42;;;;;;;35.50;19.30;;;;;;;4.76;62.12;99211.34;4946344;28;100300;-71
2024/01/18 09:28:09;;;;;;;37.80;21.13;;;;;;;4.87;62.01;99214.41;4947996;28;98735;-71
2024/01/18 09:30:36;;;;;;;43.97;21.27;;;;;;;4.83;61.54;99218.06;4948501;28;96757;-71
2024/01/18 09:33:03;;;;;;;43.33;21.02;;;;;;;5.38;60.47;99216.84;4944100;28;99209;-71
2024/01/18 09:35:36;;;;;;;40.75;20.83;;;;;;;5.19;60.55;99219.31;4942534;28;101531;-72
2024/01/18 09:38:03;;;;;;;43.75;21.55;;;;;;;4.63;62.52;99237.09;4941228;28;97119;-70
2024/01/18 09:40:29;;;;;;;43.35;20.73;;;;;;;4.88;62.38;99229.22;4943552;28;98807;-70
2024/01/18 09:42:58;;;;;;;39.25;20.13;;;;;;;4.84;62.04;99234.63;4949417;28;99391;-70
2024/01/18 09:45:26;;;;;;;46.92;21.60;;;;;;;4.61;62.79;99238.03;4946227;28;99166;-70
2024/01/18 09:47:54;;;;;;;40.63;21.73;;;;;;;4.47;63.95;99237.66;4950004;28;98007;-71
2024/01/18 09:50:22;;;;;;;43.30;22.55;;;;;;;4.72;63.76;99246.38;4946873;28;97151;-70
2024/01/18 09:52:50;;;;;;;42.13;21.15;;;;;;;5.05;62.15;99252.16;4947079;28;98786;-70
2024/01/18 09:55:17;;;;;;;44.20;21.20;;;;;;;5.05;61.90;99260.03;4945028;28;99059;-71
2024/01/18 09:57:48;;;;;;;46.25;22.48;;;;;;;4.74;62.89;99273.34;4948728;28;97249;-71
2024/01/18 10:00:16;;;;;;;44.45;22.67;;;;;;;4.73;63.45;99269.00;4941945;28;97537;-71
2024/01/18 10:02:43;;;;;;;45.00;20.75;;;;;;;4.73;63.59;99274.25;4944782;28;101148;-70
2024/01/18 10:05:13;;;;;;;46.45;23.75;;;;;;;5.18;62.28;99259.53;4945535;28;101086;-71
2024/01/18 10:07:39;;;;;;;46.30;21.70;;;;;;;5.30;61.65;99267.81;4946951;28;97478;-71
2024/01/18 10:10:12;;;;;;;45.38;22.45;;;;;;;5.02;62.26;99266.22;4948025;28;97198;-70
2024/01/18 10:12:41;;;;;;;43.00;21.95;;;;;;;4.67;63.43;99270.09;4946079;28;97712;-71
2024/01/18 10:15:08;;;;;;;45.42;22.17;;;;;;;4.86;63.22;99278.13;4946078;28;98758;-71
2024/01/18 10:17:38;;;;;;;41.40;22.65;;;;;;;4.59;64.46;99271.28;4948205;28;96790;-72
2024/01/18 10:20:13;;;;;;;44.25;21.35;;;;;;;4.79;64.57;99264.41;4942569;28;98414;-71
2024/01/18 10:22:40;;;;;;;44.55;23.33;;;;;;;4.83;64.25;99270.41;4943177;28;99318;-71
2024/01/18 10:25:13;;;;;;;45.97;23.02;;;;;;;4.85;63.67;99263.38;4945955;28;98751;-71
2024/01/18 10:27:41;;;;;;;45.70;21.85;;;;;;;4.90;63.21;99266.66;4948901;28;97289;-71
2024/01/18 10:30:09;;;;;;;45.05;21.98;;;;;;;4.84;63.82;99272.13;4942493;28;96795;-71
2024/01/18 10:32:38;;;;;;;43.67;20.80;;;;;;;4.74;63.66;99279.44;4949571;28;99230;-71
2024/01/18 10:35:05;;;;;;;47.80;23.35;;;;;;;4.46;65.57;99283.91;4951127;28;101422;-71
2024/01/18 10:37:32;;;;;;;49.58;24.27;;;;;;;4.62;64.64;99286.84;4951353;28;96834;-72
2024/01/18 10:39:58;;;;;;;52.35;24.08;;;;;;;4.65;65.18;99286.75;4947657;28;98132;-72
2024/01/18 10:42:26;;;;;;;43.40;21.90;;;;;;;4.74;65.11;99282.03;4948035;28;99003;-72
2024/01/18 10:44:53;;;;;;;44.55;22.67;;;;;;;4.70;64.19;99284.84;4946932;28;98730;-73
2024/01/18 10:47:19;;;;;;;42.10;23.13;;;;;;;4.95;63.75;99285.66;4949755;28;98440;-72
2024/01/18 10:49:46;;;;;;;46.63;21.73;;;;;;;4.87;63.30;99292.06;4951543;28;97639;-72
2024/01/18 10:52:12;;;;;;;51.90;23.33;;;;;;;4.77;63.93;99302.03;4948338;28;98797;-72
2024/01/18 10:54:39;;;;;;;48.15;24.27;;;;;;;4.60;64.95;99310.44;4946933;28;99072;-72
2024/01/18 10:57:06;;;;;;;46.50;23.27;;;;;;;4.74;64.35;99305.59;4949292;28;97061;-72
2024/01/18 10:59:34;;;;;;;42.78;22.58;;;;;;;4.56;65.25;99319.31;4950313;28;97536;-71
2024/01/18 11:02:01;;;;;;;52.05;23.20;;;;;;;4.72;64.77;99314.44;4947229;28;100227;-71
2024/01/18 11:04:29;;;;;;;46.22;24.05;;;;;;;4.91;63.88;99305.03;4950806;28;98784;-71
2024/01/18 11:06:56;;;;;;;50.75;23.73;;;;;;;4.88;65.08;99315.59;4949327;28;97314;-70
2024/01/18 11:09:24;;;;;;;51.58;23.25;;;;;;;4.98;64.03;99314.38;4948112;28;98402;-70
2024/01/18 11:11:52;;;;;;;41.85;22.02;;;;;;;4.88;63.74;99319.97;4948347;28;99530;-70
2024/01/18 11:14:19;;;;;;;45.05;23.27;;;;;;;4.89;64.58;99317.28;4945682;28;98864;-70
2024/01/18 11:16:47;;;;;;;59.50;28.05;;;;;;;5.03;63.95;99330.75;4945947;28;96738;-70
2024/01/18 11:19:13;;;;;;;44.78;23.38;;;;;;;4.80;64.81;99330.69;4948567;28;96762;-70
2024/01/18 11:21:42;;;;;;;49.75;24.23;;;;;;;4.97;64.88;99320.50;4946180;28;98210;-70
2024/01/18 11:24:10;;;;;;;43.45;22.42;;;;;;;4.94;64.46;99325.84;4948380;28;100679;-71